sensor_id;sensor_type;location;lat;lon;timestamp;temperature;humidity
698;DHT22;331;48.414;9.938;2022-09-03T00:02:35;17.40;91.70
698;DHT22;331;48.414;9.938;2022-09-03T00:05:04;17.40;91.70
698;DHT22;331;48.414;9.938;2022-09-03T00:07:34;17.40;91.70
698;DHT22;331;48.414;9.938;2022-09-03T00:10:03;17.40;91.70
698;DHT22;331;48.414;9.938;2022-09-03T00:12:32;17.40;91.70
698;DHT22;331;48.414;9.938;2022-09-03T00:15:03;17.40;91.70
698;DHT22;331;48.414;9.938;2022-09-03T00:17:31;17.40;91.70
698;DHT22;331;48.414;9.938;2022-09-03T00:20:03;17.40;91.70
698;DHT22;331;48.414;9.938;2022-09-03T00:22:32;17.40;91.70
698;DHT22;331;48.414;9.938;2022-09-03T00:25:01;17.30;91.70
698;DHT22;331;48.414;9.938;2022-09-03T00:27:28;17.30;91.70
698;DHT22;331;48.414;9.938;2022-09-03T00:29:59;17.30;91.70
698;DHT22;331;48.414;9.938;2022-09-03T00:32:28;17.30;91.70
698;DHT22;331;48.414;9.938;2022-09-03T00:35:03;17.30;91.70
698;DHT22;331;48.414;9.938;2022-09-03T00:37:31;17.30;91.70
698;DHT22;331;48.414;9.938;2022-09-03T00:39:58;17.30;91.70
698;DHT22;331;48.414;9.938;2022-09-03T00:42:32;17.20;91.70
698;DHT22;331;48.414;9.938;2022-09-03T00:45:09;17.30;91.70
698;DHT22;331;48.414;9.938;2022-09-03T00:47:40;17.20;91.70
698;DHT22;331;48.414;9.938;2022-09-03T00:50:13;17.30;91.80
698;DHT22;331;48.414;9.938;2022-09-03T00:52:43;17.20;91.80
698;DHT22;331;48.414;9.938;2022-09-03T00:55:17;17.20;91.80
698;DHT22;331;48.414;9.938;2022-09-03T00:57:49;17.20;91.80
698;DHT22;331;48.414;9.938;2022-09-03T01:00:23;17.20;91.90
698;DHT22;331;48.414;9.938;2022-09-03T01:02:56;17.20;91.90
698;DHT22;331;48.414;9.938;2022-09-03T01:05:33;17.20;91.90
698;DHT22;331;48.414;9.938;2022-09-03T01:08:06;17.20;91.90
698;DHT22;331;48.414;9.938;2022-09-03T01:10:39;17.20;92.00
698;DHT22;331;48.414;9.938;2022-09-03T01:13:11;17.20;92.00
698;DHT22;331;48.414;9.938;2022-09-03T01:15:42;17.10;91.90
698;DHT22;331;48.414;9.938;2022-09-03T01:18:14;17.20;92.00
698;DHT22;331;48.414;9.938;2022-09-03T01:20:50;17.10;91.90
698;DHT22;331;48.414;9.938;2022-09-03T01:26:15;17.10;92.00
698;DHT22;331;48.414;9.938;2022-09-03T01:28:50;17.10;92.00
698;DHT22;331;48.414;9.938;2022-09-03T01:31:23;17.10;92.00
698;DHT22;331;48.414;9.938;2022-09-03T01:33:54;17.10;92.00
698;DHT22;331;48.414;9.938;2022-09-03T01:38:52;17.10;91.80
698;DHT22;331;48.414;9.938;2022-09-03T01:41:24;17.00;92.00
698;DHT22;331;48.414;9.938;2022-09-03T01:44:13;17.10;92.00
698;DHT22;331;48.414;9.938;2022-09-03T01:46:43;17.00;92.00
698;DHT22;331;48.414;9.938;2022-09-03T01:49:14;17.00;92.00
698;DHT22;331;48.414;9.938;2022-09-03T01:51:45;17.00;92.00
698;DHT22;331;48.414;9.938;2022-09-03T01:57:15;17.00;92.00
698;DHT22;331;48.414;9.938;2022-09-03T01:59:47;17.00;92.00
698;DHT22;331;48.414;9.938;2022-09-03T02:02:18;16.90;92.00
698;DHT22;331;48.414;9.938;2022-09-03T02:04:55;17.00;92.00
698;DHT22;331;48.414;9.938;2022-09-03T02:07:23;16.90;92.00
698;DHT22;331;48.414;9.938;2022-09-03T02:09:51;16.90;92.00
698;DHT22;331;48.414;9.938;2022-09-03T02:12:17;16.90;92.00
698;DHT22;331;48.414;9.938;2022-09-03T02:14:47;16.90;92.10
698;DHT22;331;48.414;9.938;2022-09-03T02:17:14;16.90;92.10
698;DHT22;331;48.414;9.938;2022-09-03T02:19:41;16.90;92.10
698;DHT22;331;48.414;9.938;2022-09-03T02:22:08;16.90;92.10
698;DHT22;331;48.414;9.938;2022-09-03T02:24:35;16.90;92.10
698;DHT22;331;48.414;9.938;2022-09-03T02:27:02;16.90;92.20
698;DHT22;331;48.414;9.938;2022-09-03T02:29:29;16.90;92.10
698;DHT22;331;48.414;9.938;2022-09-03T02:31:57;16.80;92.10
698;DHT22;331;48.414;9.938;2022-09-03T02:34:24;16.80;92.10
698;DHT22;331;48.414;9.938;2022-09-03T02:36:51;16.80;92.10
698;DHT22;331;48.414;9.938;2022-09-03T02:39:19;16.80;92.10
698;DHT22;331;48.414;9.938;2022-09-03T02:41:50;16.80;92.20
698;DHT22;331;48.414;9.938;2022-09-03T02:44:19;16.80;92.20
698;DHT22;331;48.414;9.938;2022-09-03T02:46:51;16.80;92.20
698;DHT22;331;48.414;9.938;2022-09-03T02:49:20;16.80;92.20
698;DHT22;331;48.414;9.938;2022-09-03T02:51:47;16.80;92.20
698;DHT22;331;48.414;9.938;2022-09-03T02:54:14;16.80;92.50
698;DHT22;331;48.414;9.938;2022-09-03T02:56:41;16.80;92.20
698;DHT22;331;48.414;9.938;2022-09-03T02:59:08;16.80;92.20
698;DHT22;331;48.414;9.938;2022-09-03T03:01:35;16.70;92.20
698;DHT22;331;48.414;9.938;2022-09-03T03:04:02;16.70;92.20
698;DHT22;331;48.414;9.938;2022-09-03T03:06:30;16.70;92.20
698;DHT22;331;48.414;9.938;2022-09-03T03:08:57;16.70;92.20
698;DHT22;331;48.414;9.938;2022-09-03T03:11:25;16.70;92.30
698;DHT22;331;48.414;9.938;2022-09-03T03:13:52;16.70;92.30
698;DHT22;331;48.414;9.938;2022-09-03T03:16:19;16.70;92.30
698;DHT22;331;48.414;9.938;2022-09-03T03:18:46;16.60;92.20
698;DHT22;331;48.414;9.938;2022-09-03T03:21:14;16.60;92.20
698;DHT22;331;48.414;9.938;2022-09-03T03:23:43;16.60;92.20
698;DHT22;331;48.414;9.938;2022-09-03T03:26:14;16.60;92.30
698;DHT22;331;48.414;9.938;2022-09-03T03:28:42;16.60;92.30
698;DHT22;331;48.414;9.938;2022-09-03T03:31:11;16.60;92.30
698;DHT22;331;48.414;9.938;2022-09-03T03:33:39;16.60;92.30
698;DHT22;331;48.414;9.938;2022-09-03T03:36:06;16.60;92.30
698;DHT22;331;48.414;9.938;2022-09-03T03:38:34;16.50;92.30
698;DHT22;331;48.414;9.938;2022-09-03T03:41:06;16.60;92.30
698;DHT22;331;48.414;9.938;2022-09-03T03:43:33;16.50;92.30
698;DHT22;331;48.414;9.938;2022-09-03T03:46:00;16.50;92.30
698;DHT22;331;48.414;9.938;2022-09-03T03:48:27;16.50;92.30
698;DHT22;331;48.414;9.938;2022-09-03T03:50:54;16.50;92.30
698;DHT22;331;48.414;9.938;2022-09-03T03:53:21;16.50;92.30
698;DHT22;331;48.414;9.938;2022-09-03T03:55:54;16.50;92.30
698;DHT22;331;48.414;9.938;2022-09-03T03:58:23;16.50;92.40
698;DHT22;331;48.414;9.938;2022-09-03T04:00:50;16.50;92.40
698;DHT22;331;48.414;9.938;2022-09-03T04:03:16;16.40;92.30
698;DHT22;331;48.414;9.938;2022-09-03T04:05:53;16.40;92.30
698;DHT22;331;48.414;9.938;2022-09-03T04:08:20;16.40;92.40
698;DHT22;331;48.414;9.938;2022-09-03T04:10:47;16.40;92.40
698;DHT22;331;48.414;9.938;2022-09-03T04:13:14;16.40;92.40
698;DHT22;331;48.414;9.938;2022-09-03T04:15:42;16.40;92.40
698;DHT22;331;48.414;9.938;2022-09-03T04:18:09;16.40;92.40
698;DHT22;331;48.414;9.938;2022-09-03T04:20:36;16.40;92.40
698;DHT22;331;48.414;9.938;2022-09-03T04:23:03;16.40;92.40
698;DHT22;331;48.414;9.938;2022-09-03T04:25:30;16.40;92.40
698;DHT22;331;48.414;9.938;2022-09-03T04:27:58;16.40;92.40
698;DHT22;331;48.414;9.938;2022-09-03T04:30:25;16.40;92.50
698;DHT22;331;48.414;9.938;2022-09-03T04:32:53;16.30;92.50
698;DHT22;331;48.414;9.938;2022-09-03T04:35:21;16.30;92.50
698;DHT22;331;48.414;9.938;2022-09-03T04:37:48;16.30;92.50
698;DHT22;331;48.414;9.938;2022-09-03T04:40:15;16.30;92.50
698;DHT22;331;48.414;9.938;2022-09-03T04:42:41;16.30;92.60
698;DHT22;331;48.414;9.938;2022-09-03T04:45:09;16.30;92.60
698;DHT22;331;48.414;9.938;2022-09-03T04:47:36;16.30;92.60
698;DHT22;331;48.414;9.938;2022-09-03T04:50:05;16.30;92.60
698;DHT22;331;48.414;9.938;2022-09-03T04:52:32;16.30;92.60
698;DHT22;331;48.414;9.938;2022-09-03T04:54:59;16.30;92.60
698;DHT22;331;48.414;9.938;2022-09-03T04:57:27;16.20;92.60
698;DHT22;331;48.414;9.938;2022-09-03T04:59:58;16.20;92.60
698;DHT22;331;48.414;9.938;2022-09-03T05:02:25;16.20;92.60
698;DHT22;331;48.414;9.938;2022-09-03T05:04:52;16.20;92.60
698;DHT22;331;48.414;9.938;2022-09-03T05:07:21;16.20;92.70
698;DHT22;331;48.414;9.938;2022-09-03T05:09:47;16.20;92.60
698;DHT22;331;48.414;9.938;2022-09-03T05:12:14;16.10;92.60
698;DHT22;331;48.414;9.938;2022-09-03T05:14:42;16.10;92.70
698;DHT22;331;48.414;9.938;2022-09-03T05:17:09;16.10;92.80
698;DHT22;331;48.414;9.938;2022-09-03T05:19:35;16.00;92.80
698;DHT22;331;48.414;9.938;2022-09-03T05:22:02;16.00;92.80
698;DHT22;331;48.414;9.938;2022-09-03T05:24:30;16.00;92.90
698;DHT22;331;48.414;9.938;2022-09-03T05:26:57;16.00;92.90
698;DHT22;331;48.414;9.938;2022-09-03T05:29:24;16.00;93.10
698;DHT22;331;48.414;9.938;2022-09-03T05:31:51;15.90;93.10
698;DHT22;331;48.414;9.938;2022-09-03T05:34:18;15.90;93.20
698;DHT22;331;48.414;9.938;2022-09-03T05:36:45;15.90;93.20
698;DHT22;331;48.414;9.938;2022-09-03T05:39:14;15.90;93.30
698;DHT22;331;48.414;9.938;2022-09-03T05:41:42;15.90;93.40
698;DHT22;331;48.414;9.938;2022-09-03T05:44:09;15.90;93.30
698;DHT22;331;48.414;9.938;2022-09-03T05:46:36;15.90;93.30
698;DHT22;331;48.414;9.938;2022-09-03T05:49:03;15.90;93.40
698;DHT22;331;48.414;9.938;2022-09-03T05:51:30;15.90;93.50
698;DHT22;331;48.414;9.938;2022-09-03T05:53:58;15.80;93.40
698;DHT22;331;48.414;9.938;2022-09-03T05:56:25;15.80;93.30
698;DHT22;331;48.414;9.938;2022-09-03T05:58:55;15.80;93.40
698;DHT22;331;48.414;9.938;2022-09-03T06:01:23;15.80;93.40
698;DHT22;331;48.414;9.938;2022-09-03T06:03:52;15.90;93.50
698;DHT22;331;48.414;9.938;2022-09-03T06:06:19;15.90;93.50
698;DHT22;331;48.414;9.938;2022-09-03T06:08:49;15.80;93.50
698;DHT22;331;48.414;9.938;2022-09-03T06:11:17;15.80;93.50
698;DHT22;331;48.414;9.938;2022-09-03T06:13:47;15.80;93.50
698;DHT22;331;48.414;9.938;2022-09-03T06:16:16;15.80;93.60
698;DHT22;331;48.414;9.938;2022-09-03T06:18:43;15.80;93.60
698;DHT22;331;48.414;9.938;2022-09-03T06:21:09;15.80;93.70
698;DHT22;331;48.414;9.938;2022-09-03T06:23:36;15.80;93.80
698;DHT22;331;48.414;9.938;2022-09-03T06:26:04;15.80;93.80
698;DHT22;331;48.414;9.938;2022-09-03T06:28:31;15.80;93.80
698;DHT22;331;48.414;9.938;2022-09-03T06:30:59;15.80;93.80
698;DHT22;331;48.414;9.938;2022-09-03T06:33:28;15.80;93.80
698;DHT22;331;48.414;9.938;2022-09-03T06:35:56;15.80;93.80
698;DHT22;331;48.414;9.938;2022-09-03T06:38:24;15.80;93.80
698;DHT22;331;48.414;9.938;2022-09-03T06:40:54;15.80;93.80
698;DHT22;331;48.414;9.938;2022-09-03T06:43:22;15.80;93.80
698;DHT22;331;48.414;9.938;2022-09-03T06:45:54;15.80;93.80
698;DHT22;331;48.414;9.938;2022-09-03T06:48:21;15.80;93.90
698;DHT22;331;48.414;9.938;2022-09-03T06:51:00;15.80;94.00
698;DHT22;331;48.414;9.938;2022-09-03T06:53:27;15.80;93.90
698;DHT22;331;48.414;9.938;2022-09-03T06:55:55;15.80;93.90
698;DHT22;331;48.414;9.938;2022-09-03T06:58:22;15.80;93.80
698;DHT22;331;48.414;9.938;2022-09-03T07:00:49;15.90;93.90
698;DHT22;331;48.414;9.938;2022-09-03T07:03:18;15.90;94.00
698;DHT22;331;48.414;9.938;2022-09-03T07:05:45;15.90;94.00
698;DHT22;331;48.414;9.938;2022-09-03T07:08:13;15.90;94.10
698;DHT22;331;48.414;9.938;2022-09-03T07:10:44;15.80;94.20
698;DHT22;331;48.414;9.938;2022-09-03T07:13:11;15.80;94.20
698;DHT22;331;48.414;9.938;2022-09-03T07:15:38;15.80;94.40
698;DHT22;331;48.414;9.938;2022-09-03T07:18:05;15.80;94.40
698;DHT22;331;48.414;9.938;2022-09-03T07:20:32;15.80;94.50
698;DHT22;331;48.414;9.938;2022-09-03T07:22:59;15.80;94.50
698;DHT22;331;48.414;9.938;2022-09-03T07:25:27;15.80;94.50
698;DHT22;331;48.414;9.938;2022-09-03T07:27:55;15.80;94.60
698;DHT22;331;48.414;9.938;2022-09-03T07:30:22;15.80;94.70
698;DHT22;331;48.414;9.938;2022-09-03T07:32:50;15.80;94.70
698;DHT22;331;48.414;9.938;2022-09-03T07:35:18;15.80;94.70
698;DHT22;331;48.414;9.938;2022-09-03T07:37:45;15.80;94.70
698;DHT22;331;48.414;9.938;2022-09-03T07:40:12;15.80;94.60
698;DHT22;331;48.414;9.938;2022-09-03T07:42:41;15.80;94.70
698;DHT22;331;48.414;9.938;2022-09-03T07:45:08;15.80;94.70
698;DHT22;331;48.414;9.938;2022-09-03T07:47:36;15.80;94.80
698;DHT22;331;48.414;9.938;2022-09-03T07:50:03;15.80;94.70
698;DHT22;331;48.414;9.938;2022-09-03T07:52:30;15.90;94.90
698;DHT22;331;48.414;9.938;2022-09-03T07:54:57;15.90;94.90
698;DHT22;331;48.414;9.938;2022-09-03T07:57:24;15.90;94.90
698;DHT22;331;48.414;9.938;2022-09-03T07:59:53;15.90;95.20
698;DHT22;331;48.414;9.938;2022-09-03T08:02:20;15.90;94.90
698;DHT22;331;48.414;9.938;2022-09-03T08:04:47;15.90;95.00
698;DHT22;331;48.414;9.938;2022-09-03T08:07:13;16.00;95.20
698;DHT22;331;48.414;9.938;2022-09-03T08:09:40;16.00;95.30
698;DHT22;331;48.414;9.938;2022-09-03T08:12:07;16.00;95.40
698;DHT22;331;48.414;9.938;2022-09-03T08:14:34;16.00;95.50
698;DHT22;331;48.414;9.938;2022-09-03T08:17:03;16.00;95.50
698;DHT22;331;48.414;9.938;2022-09-03T08:19:30;16.00;95.50
698;DHT22;331;48.414;9.938;2022-09-03T08:21:56;16.10;95.50
698;DHT22;331;48.414;9.938;2022-09-03T08:24:23;16.10;95.50
698;DHT22;331;48.414;9.938;2022-09-03T08:26:50;16.10;95.50
698;DHT22;331;48.414;9.938;2022-09-03T08:29:17;16.10;95.50
698;DHT22;331;48.414;9.938;2022-09-03T08:31:44;16.10;95.40
698;DHT22;331;48.414;9.938;2022-09-03T08:34:12;16.10;95.40
698;DHT22;331;48.414;9.938;2022-09-03T08:36:44;16.10;95.40
698;DHT22;331;48.414;9.938;2022-09-03T08:39:12;16.20;95.40
698;DHT22;331;48.414;9.938;2022-09-03T08:41:43;16.20;95.40
698;DHT22;331;48.414;9.938;2022-09-03T08:44:16;16.20;95.50
698;DHT22;331;48.414;9.938;2022-09-03T08:46:47;16.20;95.60
698;DHT22;331;48.414;9.938;2022-09-03T08:49:20;16.30;95.60
698;DHT22;331;48.414;9.938;2022-09-03T08:51:48;16.30;95.40
698;DHT22;331;48.414;9.938;2022-09-03T08:54:16;16.30;95.30
698;DHT22;331;48.414;9.938;2022-09-03T08:56:43;16.30;95.50
698;DHT22;331;48.414;9.938;2022-09-03T08:59:10;16.30;95.40
698;DHT22;331;48.414;9.938;2022-09-03T09:01:40;16.30;95.60
698;DHT22;331;48.414;9.938;2022-09-03T09:04:10;16.40;95.70
698;DHT22;331;48.414;9.938;2022-09-03T09:06:43;16.40;95.90
698;DHT22;331;48.414;9.938;2022-09-03T09:09:17;16.40;95.60
698;DHT22;331;48.414;9.938;2022-09-03T09:11:49;16.40;95.70
698;DHT22;331;48.414;9.938;2022-09-03T09:14:22;16.50;95.90
698;DHT22;331;48.414;9.938;2022-09-03T09:16:54;16.50;95.90
698;DHT22;331;48.414;9.938;2022-09-03T09:19:27;16.50;96.00
698;DHT22;331;48.414;9.938;2022-09-03T09:22:00;16.50;96.00
698;DHT22;331;48.414;9.938;2022-09-03T09:24:31;16.50;95.90
698;DHT22;331;48.414;9.938;2022-09-03T09:27:02;16.50;96.10
698;DHT22;331;48.414;9.938;2022-09-03T09:29:30;16.60;96.90
698;DHT22;331;48.414;9.938;2022-09-03T09:31:58;16.70;97.90
698;DHT22;331;48.414;9.938;2022-09-03T09:34:25;17.00;99.90
698;DHT22;331;48.414;9.938;2022-09-03T09:36:53;17.00;99.60
698;DHT22;331;48.414;9.938;2022-09-03T09:39:21;16.90;98.80
698;DHT22;331;48.414;9.938;2022-09-03T09:41:57;16.90;98.70
698;DHT22;331;48.414;9.938;2022-09-03T09:44:26;16.90;98.40
698;DHT22;331;48.414;9.938;2022-09-03T09:47:04;16.90;98.20
698;DHT22;331;48.414;9.938;2022-09-03T09:49:32;16.90;98.20
698;DHT22;331;48.414;9.938;2022-09-03T09:52:00;16.90;98.10
698;DHT22;331;48.414;9.938;2022-09-03T09:54:28;17.00;98.70
698;DHT22;331;48.414;9.938;2022-09-03T09:56:59;17.10;99.30
698;DHT22;331;48.414;9.938;2022-09-03T09:59:26;17.10;98.70
698;DHT22;331;48.414;9.938;2022-09-03T10:02:01;17.20;99.20
698;DHT22;331;48.414;9.938;2022-09-03T10:04:29;17.30;99.90
698;DHT22;331;48.414;9.938;2022-09-03T10:06:57;17.40;99.90
698;DHT22;331;48.414;9.938;2022-09-03T10:09:26;17.50;99.90
698;DHT22;331;48.414;9.938;2022-09-03T10:12:02;17.60;99.90
698;DHT22;331;48.414;9.938;2022-09-03T10:14:32;17.60;99.90
698;DHT22;331;48.414;9.938;2022-09-03T10:17:02;17.60;99.90
698;DHT22;331;48.414;9.938;2022-09-03T10:19:33;17.70;99.90
698;DHT22;331;48.414;9.938;2022-09-03T10:22:06;17.80;99.90
698;DHT22;331;48.414;9.938;2022-09-03T10:24:38;17.80;99.90
698;DHT22;331;48.414;9.938;2022-09-03T10:27:09;17.90;99.90
698;DHT22;331;48.414;9.938;2022-09-03T10:29:37;17.90;99.90
698;DHT22;331;48.414;9.938;2022-09-03T10:32:15;17.90;99.90
698;DHT22;331;48.414;9.938;2022-09-03T10:34:49;17.90;99.90
698;DHT22;331;48.414;9.938;2022-09-03T10:37:25;18.00;99.90
698;DHT22;331;48.414;9.938;2022-09-03T10:40:02;18.00;99.90
698;DHT22;331;48.414;9.938;2022-09-03T10:42:36;18.00;99.90
698;DHT22;331;48.414;9.938;2022-09-03T10:45:07;18.10;99.90
698;DHT22;331;48.414;9.938;2022-09-03T10:47:57;18.00;99.90
698;DHT22;331;48.414;9.938;2022-09-03T10:50:29;18.10;99.90
698;DHT22;331;48.414;9.938;2022-09-03T10:53:03;18.20;99.90
698;DHT22;331;48.414;9.938;2022-09-03T10:55:34;18.30;99.90
698;DHT22;331;48.414;9.938;2022-09-03T10:58:10;18.40;99.90
698;DHT22;331;48.414;9.938;2022-09-03T11:00:45;18.40;99.90
698;DHT22;331;48.414;9.938;2022-09-03T11:06:00;18.50;99.90
698;DHT22;331;48.414;9.938;2022-09-03T11:08:29;18.50;99.90
698;DHT22;331;48.414;9.938;2022-09-03T11:11:01;18.50;99.90
698;DHT22;331;48.414;9.938;2022-09-03T11:13:32;18.40;99.90
698;DHT22;331;48.414;9.938;2022-09-03T11:16:01;18.40;99.90
698;DHT22;331;48.414;9.938;2022-09-03T11:18:30;18.40;99.90
698;DHT22;331;48.414;9.938;2022-09-03T11:21:00;18.40;99.90
698;DHT22;331;48.414;9.938;2022-09-03T11:23:28;18.40;99.90
698;DHT22;331;48.414;9.938;2022-09-03T11:25:57;18.40;99.90
698;DHT22;331;48.414;9.938;2022-09-03T11:28:29;18.40;99.90
698;DHT22;331;48.414;9.938;2022-09-03T11:31:05;18.50;99.90
698;DHT22;331;48.414;9.938;2022-09-03T11:33:38;18.50;99.90
698;DHT22;331;48.414;9.938;2022-09-03T11:36:07;18.50;99.90
698;DHT22;331;48.414;9.938;2022-09-03T11:38:34;18.50;99.90
698;DHT22;331;48.414;9.938;2022-09-03T11:41:09;18.50;99.90
698;DHT22;331;48.414;9.938;2022-09-03T11:43:37;18.50;99.90
698;DHT22;331;48.414;9.938;2022-09-03T11:46:08;18.60;99.90
698;DHT22;331;48.414;9.938;2022-09-03T11:48:38;18.60;99.90
698;DHT22;331;48.414;9.938;2022-09-03T11:51:15;18.60;99.90
698;DHT22;331;48.414;9.938;2022-09-03T11:53:52;18.70;99.90
698;DHT22;331;48.414;9.938;2022-09-03T11:56:19;18.60;99.90
698;DHT22;331;48.414;9.938;2022-09-03T11:58:56;18.70;99.90
698;DHT22;331;48.414;9.938;2022-09-03T12:01:26;18.70;99.90
698;DHT22;331;48.414;9.938;2022-09-03T12:03:56;18.70;99.90
698;DHT22;331;48.414;9.938;2022-09-03T12:06:34;18.70;99.90
698;DHT22;331;48.414;9.938;2022-09-03T12:09:12;18.80;99.90
698;DHT22;331;48.414;9.938;2022-09-03T12:11:45;18.80;99.80
698;DHT22;331;48.414;9.938;2022-09-03T12:14:16;18.80;99.80
698;DHT22;331;48.414;9.938;2022-09-03T12:16:53;18.80;99.80
698;DHT22;331;48.414;9.938;2022-09-03T12:19:25;18.90;99.90
698;DHT22;331;48.414;9.938;2022-09-03T12:21:54;18.90;99.90
698;DHT22;331;48.414;9.938;2022-09-03T12:24:21;18.90;99.90
698;DHT22;331;48.414;9.938;2022-09-03T12:26:50;18.90;99.90
698;DHT22;331;48.414;9.938;2022-09-03T12:29:21;18.90;99.90
698;DHT22;331;48.414;9.938;2022-09-03T12:31:49;18.90;99.90
698;DHT22;331;48.414;9.938;2022-09-03T12:34:18;18.90;99.90
698;DHT22;331;48.414;9.938;2022-09-03T12:36:46;18.90;99.90
698;DHT22;331;48.414;9.938;2022-09-03T12:39:14;18.90;99.90
698;DHT22;331;48.414;9.938;2022-09-03T12:41:51;18.90;99.90
698;DHT22;331;48.414;9.938;2022-09-03T12:44:23;18.90;99.90
698;DHT22;331;48.414;9.938;2022-09-03T12:47:01;18.90;99.90
698;DHT22;331;48.414;9.938;2022-09-03T12:49:34;18.90;99.80
698;DHT22;331;48.414;9.938;2022-09-03T12:52:04;18.90;99.70
698;DHT22;331;48.414;9.938;2022-09-03T12:54:33;18.90;99.70
698;DHT22;331;48.414;9.938;2022-09-03T12:57:00;18.90;99.70
698;DHT22;331;48.414;9.938;2022-09-03T12:59:27;18.90;99.60
698;DHT22;331;48.414;9.938;2022-09-03T13:01:59;18.90;99.50
698;DHT22;331;48.414;9.938;2022-09-03T13:04:28;18.90;99.60
698;DHT22;331;48.414;9.938;2022-09-03T13:07:00;18.90;99.50
698;DHT22;331;48.414;9.938;2022-09-03T13:09:28;18.80;99.40
698;DHT22;331;48.414;9.938;2022-09-03T13:11:56;18.80;99.50
698;DHT22;331;48.414;9.938;2022-09-03T13:14:24;18.90;99.60
698;DHT22;331;48.414;9.938;2022-09-03T13:19:39;18.90;99.60
698;DHT22;331;48.414;9.938;2022-09-03T13:22:13;18.90;99.60
698;DHT22;331;48.414;9.938;2022-09-03T13:27:31;18.90;99.50
698;DHT22;331;48.414;9.938;2022-09-03T13:30:04;18.90;99.50
698;DHT22;331;48.414;9.938;2022-09-03T13:35:22;18.90;99.40
698;DHT22;331;48.414;9.938;2022-09-03T13:37:53;19.00;99.40
698;DHT22;331;48.414;9.938;2022-09-03T13:40:23;19.00;99.40
698;DHT22;331;48.414;9.938;2022-09-03T13:42:55;18.90;99.30
698;DHT22;331;48.414;9.938;2022-09-03T13:45:28;18.90;99.20
698;DHT22;331;48.414;9.938;2022-09-03T13:47:58;19.00;99.20
698;DHT22;331;48.414;9.938;2022-09-03T13:50:44;19.00;99.20
698;DHT22;331;48.414;9.938;2022-09-03T13:53:16;19.00;99.20
698;DHT22;331;48.414;9.938;2022-09-03T13:55:45;19.00;99.20
698;DHT22;331;48.414;9.938;2022-09-03T13:58:17;19.00;99.10
698;DHT22;331;48.414;9.938;2022-09-03T14:00:46;19.00;99.10
698;DHT22;331;48.414;9.938;2022-09-03T14:03:17;19.00;99.10
698;DHT22;331;48.414;9.938;2022-09-03T14:05:53;19.00;99.00
698;DHT22;331;48.414;9.938;2022-09-03T14:08:29;19.00;99.00
698;DHT22;331;48.414;9.938;2022-09-03T14:11:04;19.00;98.90
698;DHT22;331;48.414;9.938;2022-09-03T14:13:51;19.00;98.90
698;DHT22;331;48.414;9.938;2022-09-03T14:16:23;19.00;98.90
698;DHT22;331;48.414;9.938;2022-09-03T14:18:54;19.00;98.90
698;DHT22;331;48.414;9.938;2022-09-03T14:21:23;19.00;98.90
698;DHT22;331;48.414;9.938;2022-09-03T14:23:58;19.00;98.80
698;DHT22;331;48.414;9.938;2022-09-03T14:26:28;19.00;98.90
698;DHT22;331;48.414;9.938;2022-09-03T14:28:59;19.00;98.90
698;DHT22;331;48.414;9.938;2022-09-03T14:31:31;19.00;98.90
698;DHT22;331;48.414;9.938;2022-09-03T14:34:06;19.10;98.90
698;DHT22;331;48.414;9.938;2022-09-03T14:36:35;19.00;98.80
698;DHT22;331;48.414;9.938;2022-09-03T14:39:10;19.10;98.90
698;DHT22;331;48.414;9.938;2022-09-03T14:41:49;19.10;98.90
698;DHT22;331;48.414;9.938;2022-09-03T14:44:38;19.10;99.00
698;DHT22;331;48.414;9.938;2022-09-03T14:47:11;19.10;98.90
698;DHT22;331;48.414;9.938;2022-09-03T14:49:49;19.10;98.90
698;DHT22;331;48.414;9.938;2022-09-03T14:52:23;19.10;99.00
698;DHT22;331;48.414;9.938;2022-09-03T14:55:03;19.10;98.90
698;DHT22;331;48.414;9.938;2022-09-03T14:57:49;19.10;98.70
698;DHT22;331;48.414;9.938;2022-09-03T15:00:19;19.20;99.00
698;DHT22;331;48.414;9.938;2022-09-03T15:02:51;19.20;99.00
698;DHT22;331;48.414;9.938;2022-09-03T15:05:27;19.20;99.00
698;DHT22;331;48.414;9.938;2022-09-03T15:08:01;19.20;99.00
698;DHT22;331;48.414;9.938;2022-09-03T15:10:37;19.20;99.00
698;DHT22;331;48.414;9.938;2022-09-03T15:13:09;19.20;98.80
698;DHT22;331;48.414;9.938;2022-09-03T15:15:45;19.30;99.10
698;DHT22;331;48.414;9.938;2022-09-03T15:18:16;19.30;99.20
698;DHT22;331;48.414;9.938;2022-09-03T15:20:48;19.30;99.20
698;DHT22;331;48.414;9.938;2022-09-03T15:23:26;19.30;99.10
698;DHT22;331;48.414;9.938;2022-09-03T15:26:20;19.30;99.10
698;DHT22;331;48.414;9.938;2022-09-03T15:29:02;19.40;99.10
698;DHT22;331;48.414;9.938;2022-09-03T15:31:35;19.40;99.20
698;DHT22;331;48.414;9.938;2022-09-03T15:34:07;19.40;99.20
698;DHT22;331;48.414;9.938;2022-09-03T15:39:08;19.40;98.90
698;DHT22;331;48.414;9.938;2022-09-03T15:41:39;19.50;99.20
698;DHT22;331;48.414;9.938;2022-09-03T15:44:07;19.50;99.20
698;DHT22;331;48.414;9.938;2022-09-03T15:46:40;19.50;99.30
698;DHT22;331;48.414;9.938;2022-09-03T15:49:16;19.60;99.40
698;DHT22;331;48.414;9.938;2022-09-03T15:51:46;19.60;99.40
698;DHT22;331;48.414;9.938;2022-09-03T15:54:20;19.60;99.40
698;DHT22;331;48.414;9.938;2022-09-03T15:56:54;19.70;99.40
698;DHT22;331;48.414;9.938;2022-09-03T15:59:22;19.70;99.10
698;DHT22;331;48.414;9.938;2022-09-03T16:01:51;19.70;99.30
698;DHT22;331;48.414;9.938;2022-09-03T16:04:26;19.70;99.30
698;DHT22;331;48.414;9.938;2022-09-03T16:06:58;19.80;99.30
698;DHT22;331;48.414;9.938;2022-09-03T16:09:35;19.80;99.30
698;DHT22;331;48.414;9.938;2022-09-03T16:12:13;19.80;99.20
698;DHT22;331;48.414;9.938;2022-09-03T16:14:45;19.90;99.20
698;DHT22;331;48.414;9.938;2022-09-03T16:17:15;19.80;99.10
698;DHT22;331;48.414;9.938;2022-09-03T16:19:45;19.90;99.10
698;DHT22;331;48.414;9.938;2022-09-03T16:22:16;19.90;99.10
698;DHT22;331;48.414;9.938;2022-09-03T16:24:47;19.90;99.00
698;DHT22;331;48.414;9.938;2022-09-03T16:27:19;19.90;99.30
698;DHT22;331;48.414;9.938;2022-09-03T16:29:56;19.90;99.00
698;DHT22;331;48.414;9.938;2022-09-03T16:32:28;19.90;99.00
698;DHT22;331;48.414;9.938;2022-09-03T16:35:01;20.00;99.00
698;DHT22;331;48.414;9.938;2022-09-03T16:37:31;20.00;99.00
698;DHT22;331;48.414;9.938;2022-09-03T16:40:02;20.00;98.90
698;DHT22;331;48.414;9.938;2022-09-03T16:42:41;20.00;98.90
698;DHT22;331;48.414;9.938;2022-09-03T16:45:12;20.00;98.90
698;DHT22;331;48.414;9.938;2022-09-03T16:47:56;20.00;98.80
698;DHT22;331;48.414;9.938;2022-09-03T16:50:30;20.00;98.80
698;DHT22;331;48.414;9.938;2022-09-03T16:53:02;20.00;98.70
698;DHT22;331;48.414;9.938;2022-09-03T16:55:32;20.00;98.70
698;DHT22;331;48.414;9.938;2022-09-03T16:58:05;20.00;98.70
698;DHT22;331;48.414;9.938;2022-09-03T17:00:41;20.10;98.70
698;DHT22;331;48.414;9.938;2022-09-03T17:03:18;20.10;98.60
698;DHT22;331;48.414;9.938;2022-09-03T17:05:57;20.10;98.60
698;DHT22;331;48.414;9.938;2022-09-03T17:08:30;20.10;98.60
698;DHT22;331;48.414;9.938;2022-09-03T17:11:02;20.10;98.60
698;DHT22;331;48.414;9.938;2022-09-03T17:13:44;20.10;98.60
698;DHT22;331;48.414;9.938;2022-09-03T17:16:15;20.10;98.60
698;DHT22;331;48.414;9.938;2022-09-03T17:18:47;20.20;98.50